Time,TemperatureF,DewpointF,PressureIn,WindDirection,WindDirectionDegrees,WindSpeedMPH,WindSpeedGustMPH,Humidity,HourlyPrecipIn,Conditions,Clouds,dailyrainin,SoftwareType,DateUTC
2013-02-05 00:00:00,22.3,15.3,29.97,SSE,150,7.0,7.0,74,0.00,OVC,OVC,0.00,WeatherDisplay:10.37,2013-02-05 06:00:00,
2013-02-05 00:05:00,22.2,14.9,29.97,SE,130,2.3,2.3,73,0.00,OVC,OVC,0.00,WeatherDisplay:10.37,2013-02-05 06:05:00,
2013-02-05 00:11:00,22.2,15.2,29.96,SSE,154,5.8,5.8,74,0.00,OVC,OVC,0.00,WeatherDisplay:10.37,2013-02-05 06:11:00,
2013-02-05 00:16:00,22.2,15.2,29.96,SSE,161,3.5,3.5,74,0.00,OVC,OVC,0.00,WeatherDisplay:10.37,2013-02-05 06:16:00,
2013-02-05 00:21:00,22.2,15.2,29.96,SE,132,9.2,9.2,74,0.00,OVC,OVC,0.00,WeatherDisplay:10.37,2013-02-05 06:21:00,
2013-02-05 00:26:00,22.2,15.2,29.96,SSE,153,3.5,3.5,74,0.00,OVC,OVC,0.00,WeatherDisplay:10.37,2013-02-05 06:26:00,
2013-02-05 00:31:00,22.2,15.2,29.96,SSE,150,6.9,6.9,74,0.00,OVC,OVC,0.00,WeatherDisplay:10.37,2013-02-05 06:31:00,
2013-02-05 00:37:00,22.3,15.3,29.96,SSE,161,3.5,0.0,74,0.00,OVC,OVC,0.00,WeatherDisplay:10.37,2013-02-05 06:37:00,
2013-02-05 00:42:00,22.3,15.3,29.96,South,171,3.5,3.5,74,0.00,OVC,OVC,0.00,WeatherDisplay:10.37,2013-02-05 06:42:00,
2013-02-05 00:47:00,22.4,15.4,29.96,SSE,167,4.6,4.6,74,0.00,OVC,OVC,0.00,WeatherDisplay:10.37,2013-02-05 06:47:00,
2013-02-05 00:53:00,22.4,15.4,29.96,SE,141,1.2,0.0,74,0.00,OVC,OVC,0.00,WeatherDisplay:10.37,2013-02-05 06:53:00,
2013-02-05 00:58:00,22.5,15.5,29.95,SSE,165,1.0,1.0,74,0.00,,,0.00,WeatherDisplay:10.37,2013-02-05 06:58:00,
2013-02-05 01:03:00,22.6,15.6,29.95,SSW,202,2.3,2.3,74,0.00,,,0.00,WeatherDisplay:10.37,2013-02-05 07:03:00,
2013-02-05 01:08:00,22.6,15.6,29.95,South,170,3.5,3.5,74,0.00,,,0.00,WeatherDisplay:10.37,2013-02-05 07:08:00,
2013-02-05 01:14:00,22.6,15.6,29.96,South,188,6.9,6.9,74,0.00,,,0.00,WeatherDisplay:10.37,2013-02-05 07:14:00,
2013-02-05 01:19:00,22.7,15.7,29.96,South,175,3.5,3.5,74,0.00,,,0.00,WeatherDisplay:10.37,2013-02-05 07:19:00,
2013-02-05 01:24:00,22.8,15.8,29.96,South,173,0.0,0.0,74,0.00,,,0.00,WeatherDisplay:10.37,2013-02-05 07:24:00,
2013-02-05 01:29:00,22.8,15.8,29.96,South,170,2.3,2.3,74,0.00,,,0.00,WeatherDisplay:10.37,2013-02-05 07:29:00,
2013-02-05 01:35:00,22.9,15.8,29.96,South,182,0.0,0.0,74,0.00,,,0.00,WeatherDisplay:10.37,2013-02-05 07:35:00,
2013-02-05 01:40:00,23.0,15.9,29.96,South,177,3.5,3.5,74,0.00,,,0.00,WeatherDisplay:10.37,2013-02-05 07:40:00,
2013-02-05 01:45:00,23.0,15.9,29.96,SSE,160,0.0,0.0,74,0.00,,,0.00,WeatherDisplay:10.37,2013-02-05 07:45:00,
2013-02-05 01:50:00,23.1,16.0,29.96,SSW,193,3.5,3.5,74,0.00,,,0.00,WeatherDisplay:10.37,2013-02-05 07:50:00,
2013-02-05 01:55:00,23.2,16.1,29.96,South,172,3.5,3.5,74,0.00,,,0.00,WeatherDisplay:10.37,2013-02-05 07:55:00,
2013-02-05 02:01:00,23.3,16.2,29.95,SSE,161,5.8,5.8,74,0.00,,,0.00,WeatherDisplay:10.37,2013-02-05 08:01:00,
2013-02-05 02:06:00,23.3,16.2,29.95,SSE,157,2.3,2.3,74,0.00,,,0.00,WeatherDisplay:10.37,2013-02-05 08:06:00,
2013-02-05 02:11:00,23.3,16.2,29.94,SSE,164,6.9,6.9,74,0.00,,,0.00,WeatherDisplay:10.37,2013-02-05 08:11:00,
2013-02-05 02:16:00,23.4,16.3,29.94,South,169,3.5,3.5,74,0.00,,,0.00,WeatherDisplay:10.37,2013-02-05 08:16:00,
2013-02-05 02:22:00,23.4,16.3,29.94,SSE,160,3.5,3.5,74,0.00,,,0.00,WeatherDisplay:10.37,2013-02-05 08:22:00,
2013-02-05 02:27:00,23.5,16.4,29.94,SSE,163,2.3,2.3,74,0.00,,,0.00,WeatherDisplay:10.37,2013-02-05 08:27:00,
2013-02-05 02:32:00,23.5,16.4,29.93,SSE,165,4.0,4.0,74,0.00,,,0.00,WeatherDisplay:10.37,2013-02-05 08:32:00,
2013-02-05 02:37:00,23.6,16.5,29.93,SSE,150,3.5,3.5,74,0.00,,,0.00,WeatherDisplay:10.37,2013-02-05 08:37:00,
2013-02-05 02:43:00,23.7,16.6,29.93,SSE,161,1.2,1.2,74,0.00,,,0.00,WeatherDisplay:10.37,2013-02-05 08:43:00,
2013-02-05 02:48:00,23.8,16.7,29.92,South,170,6.9,6.9,74,0.00,,,0.00,WeatherDisplay:10.37,2013-02-05 08:48:00,
2013-02-05 02:53:00,23.8,16.7,29.92,SSW,195,3.5,3.5,74,0.00,,,0.00,WeatherDisplay:10.37,2013-02-05 08:53:00,
2013-02-05 02:58:00,23.9,16.8,29.92,South,184,4.6,4.6,74,0.00,,,0.00,WeatherDisplay:10.37,2013-02-05 08:58:00,
2013-02-05 03:04:00,23.9,16.8,29.92,South,169,5.8,5.8,74,0.00,,,0.00,WeatherDisplay:10.37,2013-02-05 09:04:00,
2013-02-05 03:09:00,23.9,16.8,29.91,South,182,6.9,6.9,74,0.00,,,0.00,WeatherDisplay:10.37,2013-02-05 09:09:00,
2013-02-05 03:14:00,23.9,16.8,29.91,South,181,3.5,3.5,74,0.00,,,0.00,WeatherDisplay:10.37,2013-02-05 09:14:00,
2013-02-05 03:19:00,23.9,16.8,29.91,South,173,3.5,3.5,74,0.00,,,0.00,WeatherDisplay:10.37,2013-02-05 09:19:00,
2013-02-05 03:24:00,23.9,16.8,29.91,South,178,1.2,1.2,74,0.00,,,0.00,WeatherDisplay:10.37,2013-02-05 09:24:00,
2013-02-05 03:30:00,24.0,16.9,29.92,SSW,194,3.5,3.5,74,0.00,,,0.00,WeatherDisplay:10.37,2013-02-05 09:30:00,
2013-02-05 03:35:00,24.0,16.9,29.91,South,179,3.5,3.5,74,0.00,,,0.00,WeatherDisplay:10.37,2013-02-05 09:35:00,
2013-02-05 03:40:00,24.0,16.9,29.91,SSW,210,4.6,4.6,74,0.00,,,0.00,WeatherDisplay:10.37,2013-02-05 09:40:00,
2013-02-05 03:45:00,23.9,16.8,29.90,SSE,163,3.5,3.5,74,0.00,,,0.00,WeatherDisplay:10.37,2013-02-05 09:45:00,
2013-02-05 03:51:00,23.9,16.8,29.89,SSW,197,4.6,4.6,74,0.00,,,0.00,WeatherDisplay:10.37,2013-02-05 09:51:00,
2013-02-05 03:56:00,23.8,16.7,29.89,SSE,155,3.5,3.5,74,0.00,,,0.00,WeatherDisplay:10.37,2013-02-05 09:56:00,
2013-02-05 04:01:00,23.6,16.5,29.88,South,183,5.8,5.8,74,0.00,,,0.00,WeatherDisplay:10.37,2013-02-05 10:01:00,
2013-02-05 04:06:00,23.6,16.8,29.88,SSW,203,5.8,5.8,75,0.00,,,0.00,WeatherDisplay:10.37,2013-02-05 10:06:00,
2013-02-05 04:11:00,23.4,16.6,29.88,SSW,194,4.6,4.6,75,0.00,,,0.00,WeatherDisplay:10.37,2013-02-05 10:11:00,
2013-02-05 04:17:00,23.4,16.6,29.89,SSW,205,3.5,3.5,75,0.00,,,0.00,WeatherDisplay:10.37,2013-02-05 10:17:00,
2013-02-05 04:22:00,23.3,16.5,29.89,South,187,3.5,3.5,75,0.00,,,0.00,WeatherDisplay:10.37,2013-02-05 10:22:00,
2013-02-05 04:27:00,23.2,16.4,29.88,South,186,4.6,4.6,75,0.00,,,0.00,WeatherDisplay:10.37,2013-02-05 10:27:00,
2013-02-05 04:33:00,23.1,16.4,29.89,South,180,3.5,3.5,75,0.00,,,0.00,WeatherDisplay:10.37,2013-02-05 10:33:00,
2013-02-05 04:38:00,23.1,16.7,29.88,South,182,3.0,3.0,76,0.00,,,0.00,WeatherDisplay:10.37,2013-02-05 10:38:00,
2013-02-05 04:43:00,23.1,16.7,29.88,SSW,194,3.5,3.5,76,0.00,,,0.00,WeatherDisplay:10.37,2013-02-05 10:43:00,
2013-02-05 04:48:00,23.1,16.7,29.88,SSW,192,6.9,0.0,76,0.00,,,0.00,WeatherDisplay:10.37,2013-02-05 10:48:00,
2013-02-05 04:54:00,23.1,16.7,29.88,SSW,195,4.6,4.6,76,0.00,,,0.00,WeatherDisplay:10.37,2013-02-05 10:54:00,
2013-02-05 04:59:00,23.2,16.8,29.89,SSW,194,4.6,4.6,76,0.00,,,0.00,WeatherDisplay:10.37,2013-02-05 10:59:00,
2013-02-05 05:04:00,23.3,16.9,29.88,SSW,203,3.5,3.5,76,0.00,,,0.00,WeatherDisplay:10.37,2013-02-05 11:04:00,
2013-02-05 05:09:00,23.3,17.2,29.88,SSW,192,1.2,0.0,77,0.00,,,0.00,WeatherDisplay:10.37,2013-02-05 11:09:00,
2013-02-05 05:15:00,23.3,17.2,29.88,SSW,198,5.8,5.8,77,0.00,,,0.00,WeatherDisplay:10.37,2013-02-05 11:15:00,
2013-02-05 05:20:00,23.4,17.3,29.87,South,171,3.5,3.5,77,0.00,,,0.00,WeatherDisplay:10.37,2013-02-05 11:20:00,
2013-02-05 05:25:00,23.5,17.3,29.87,South,169,3.5,3.5,77,0.00,,,0.00,WeatherDisplay:10.37,2013-02-05 11:25:00,
2013-02-05 05:30:00,23.5,17.3,29.87,South,169,0.0,0.0,77,0.00,,,0.00,WeatherDisplay:10.37,2013-02-05 11:30:00,
2013-02-05 05:35:00,23.7,17.5,29.86,South,184,5.0,5.0,77,0.00,,,0.00,WeatherDisplay:10.37,2013-02-05 11:35:00,
2013-02-05 05:41:00,23.9,17.7,29.87,SSW,195,2.3,0.0,77,0.00,,,0.00,WeatherDisplay:10.37,2013-02-05 11:41:00,
2013-02-05 05:46:00,23.9,17.7,29.87,SW,230,0.0,0.0,77,0.00,,,0.00,WeatherDisplay:10.37,2013-02-05 11:46:00,
2013-02-05 05:51:00,24.1,17.9,29.87,SW,230,0.0,0.0,77,0.00,,,0.00,WeatherDisplay:10.37,2013-02-05 11:51:00,
2013-02-05 05:56:00,24.1,17.9,29.88,SW,230,1.2,0.0,77,0.00,,,0.00,WeatherDisplay:10.37,2013-02-05 11:56:00,
2013-02-05 06:02:00,24.1,17.9,29.87,SW,229,0.0,0.0,77,0.00,,,0.00,WeatherDisplay:10.37,2013-02-05 12:02:00,
2013-02-05 06:07:00,24.1,17.9,29.87,SW,227,1.2,0.0,77,0.00,,,0.00,WeatherDisplay:10.37,2013-02-05 12:07:00,
2013-02-05 06:12:00,24.2,18.0,29.87,SSW,199,3.5,3.5,77,0.00,,,0.00,WeatherDisplay:10.37,2013-02-05 12:12:00,
2013-02-05 06:17:00,24.3,18.4,29.87,SSW,200,1.2,0.0,78,0.00,,,0.00,WeatherDisplay:10.37,2013-02-05 12:17:00,
2013-02-05 06:23:00,24.4,18.5,29.87,SW,221,4.6,4.6,78,0.00,,,0.00,WeatherDisplay:10.37,2013-02-05 12:23:00,
2013-02-05 06:28:00,24.5,18.6,29.86,SSW,205,0.0,0.0,78,0.00,,,0.00,WeatherDisplay:10.37,2013-02-05 12:28:00,
2013-02-05 06:34:00,24.5,18.6,29.86,SSW,209,0.0,0.0,78,0.00,,,0.00,WeatherDisplay:10.37,2013-02-05 12:34:00,
2013-02-05 06:39:00,24.7,18.8,29.87,SSW,207,3.5,3.5,78,0.00,,,0.00,WeatherDisplay:10.37,2013-02-05 12:39:00,
2013-02-05 06:44:00,24.9,19.0,29.87,SSW,192,3.5,3.5,78,0.00,,,0.00,WeatherDisplay:10.37,2013-02-05 12:44:00,
2013-02-05 06:49:00,25.0,19.1,29.87,SSW,194,0.0,0.0,78,0.00,,,0.00,WeatherDisplay:10.37,2013-02-05 12:49:00,
2013-02-05 06:54:00,25.1,19.2,29.87,SSW,213,4.6,4.6,78,0.00,,,0.00,WeatherDisplay:10.37,2013-02-05 12:54:00,
2013-02-05 06:59:00,25.2,19.3,29.87,SSW,213,2.3,2.3,78,0.00,OVC,OVC,0.00,WeatherDisplay:10.37,2013-02-05 12:59:00,
2013-02-05 07:05:00,25.2,19.3,29.87,SW,216,3.5,3.5,78,0.00,OVC,OVC,0.00,WeatherDisplay:10.37,2013-02-05 13:05:00,
2013-02-05 07:10:00,25.3,19.4,29.87,SW,218,3.5,3.5,78,0.00,OVC,OVC,0.00,WeatherDisplay:10.37,2013-02-05 13:10:00,
2013-02-05 07:15:00,25.5,19.6,29.87,WSW,245,4.6,4.6,78,0.00,OVC,OVC,0.00,WeatherDisplay:10.37,2013-02-05 13:15:00,
2013-02-05 07:21:00,25.7,20.1,29.87,SW,230,3.5,3.5,79,0.00,OVC,OVC,0.00,WeatherDisplay:10.37,2013-02-05 13:21:00,
2013-02-05 07:26:00,25.8,19.9,29.87,South,187,3.5,3.5,78,0.00,OVC,OVC,0.00,WeatherDisplay:10.37,2013-02-05 13:26:00,
2013-02-05 07:31:00,26.1,20.2,29.86,WSW,252,11.5,11.5,78,0.00,OVC,OVC,0.00,WeatherDisplay:10.37,2013-02-05 13:31:00,
2013-02-05 07:36:00,26.3,20.7,29.86,WSW,250,3.5,3.5,79,0.00,OVC,OVC,0.00,WeatherDisplay:10.37,2013-02-05 13:36:00,
2013-02-05 07:42:00,26.6,20.7,29.87,SW,222,4.6,4.6,78,0.00,OVC,OVC,0.00,WeatherDisplay:10.37,2013-02-05 13:42:00,
2013-02-05 07:47:00,26.9,21.0,29.87,West,259,2.3,2.3,78,0.00,OVC,OVC,0.00,WeatherDisplay:10.37,2013-02-05 13:47:00,
2013-02-05 07:52:00,27.1,21.2,29.87,WSW,249,9.2,9.2,78,0.00,OVC,OVC,0.00,WeatherDisplay:10.37,2013-02-05 13:52:00,
2013-02-05 07:57:00,27.3,21.0,29.88,WSW,243,9.2,9.2,77,0.00,OVC,OVC,0.00,WeatherDisplay:10.37,2013-02-05 13:57:00,
2013-02-05 08:03:00,27.5,21.5,29.88,West,275,2.3,2.3,78,0.00,OVC,OVC,0.00,WeatherDisplay:10.37,2013-02-05 14:03:00,
2013-02-05 08:08:00,27.8,21.5,29.87,SW,235,3.5,3.5,77,0.00,OVC,OVC,0.00,WeatherDisplay:10.37,2013-02-05 14:08:00,
2013-02-05 08:13:00,28.2,21.9,29.88,WSW,238,5.0,5.0,77,0.00,OVC,OVC,0.00,WeatherDisplay:10.37,2013-02-05 14:13:00,
2013-02-05 08:18:00,28.7,22.4,29.88,WSW,253,3.5,3.5,77,0.00,OVC,OVC,0.00,WeatherDisplay:10.37,2013-02-05 14:18:00,
2013-02-05 08:24:00,29.2,22.6,29.88,WSW,238,3.5,3.5,76,0.00,OVC,OVC,0.00,WeatherDisplay:10.37,2013-02-05 14:24:00,
2013-02-05 08:29:00,29.7,23.1,29.88,WSW,244,3.5,3.5,76,0.00,OVC,OVC,0.00,WeatherDisplay:10.37,2013-02-05 14:29:00,
2013-02-05 08:34:00,30.3,23.3,29.88,WNW,283,3.5,3.5,75,0.00,OVC,OVC,0.00,WeatherDisplay:10.37,2013-02-05 14:34:00,
2013-02-05 08:39:00,30.7,23.4,29.89,West,281,0.0,0.0,74,0.00,OVC,OVC,0.00,WeatherDisplay:10.37,2013-02-05 14:39:00,
2013-02-05 08:45:00,31.1,23.5,29.89,West,270,2.3,2.3,73,0.00,OVC,OVC,0.00,WeatherDisplay:10.37,2013-02-05 14:45:00,
2013-02-05 08:50:00,31.5,23.5,29.89,WSW,247,4.6,4.6,72,0.00,OVC,OVC,0.00,WeatherDisplay:10.37,2013-02-05 14:50:00,
2013-02-05 08:55:00,31.9,23.9,29.89,SW,235,2.3,2.3,72,0.00,OVC,OVC,0.00,WeatherDisplay:10.37,2013-02-05 14:55:00,
2013-02-05 09:00:00,32.4,24.0,29.89,WSW,243,9.2,9.2,71,0.00,OVC,OVC,0.00,WeatherDisplay:10.37,2013-02-05 15:00:00,
2013-02-05 09:06:00,32.6,23.9,29.89,WSW,253,5.8,5.8,70,0.00,OVC,OVC,0.00,WeatherDisplay:10.37,2013-02-05 15:06:00,
2013-02-05 09:11:00,32.9,24.2,29.89,SW,227,10.4,10.4,70,0.00,OVC,OVC,0.00,WeatherDisplay:10.37,2013-02-05 15:11:00,
2013-02-05 09:16:00,33.0,23.9,29.89,WNW,300,3.5,3.5,69,0.00,OVC,OVC,0.00,WeatherDisplay:10.37,2013-02-05 15:16:00,
2013-02-05 09:21:00,33.4,24.3,29.89,West,276,10.4,10.4,69,0.00,OVC,OVC,0.00,WeatherDisplay:10.37,2013-02-05 15:21:00,
2013-02-05 09:26:00,33.7,24.6,29.89,NW,305,6.9,6.9,69,0.00,OVC,OVC,0.00,WeatherDisplay:10.37,2013-02-05 15:26:00,
2013-02-05 09:31:00,34.0,24.5,29.89,West,266,6.9,6.9,68,0.00,OVC,OVC,0.00,WeatherDisplay:10.37,2013-02-05 15:31:00,
2013-02-05 09:37:00,34.4,24.9,29.89,WNW,294,4.6,4.6,68,0.00,OVC,OVC,0.00,WeatherDisplay:10.37,2013-02-05 15:37:00,
2013-02-05 09:42:00,34.7,25.2,29.89,WNW,287,4.6,4.6,68,0.00,OVC,OVC,0.00,WeatherDisplay:10.37,2013-02-05 15:42:00,
2013-02-05 09:47:00,35.2,25.3,29.89,WNW,288,6.9,6.9,67,0.00,OVC,OVC,0.00,WeatherDisplay:10.37,2013-02-05 15:47:00,
2013-02-05 09:53:00,35.7,25.4,29.89,West,273,7.0,7.0,66,0.00,OVC,OVC,0.00,WeatherDisplay:10.37,2013-02-05 15:53:00,
2013-02-05 09:58:00,36.2,25.9,29.90,West,263,9.2,9.2,66,0.00,OVC,OVC,0.00,WeatherDisplay:10.37,2013-02-05 15:58:00,
2013-02-05 10:03:00,36.8,26.1,29.90,West,271,12.7,12.7,65,0.00,OVC,OVC,0.00,WeatherDisplay:10.37,2013-02-05 16:03:00,
2013-02-05 10:08:00,37.1,26.4,29.91,WNW,286,5.8,5.8,65,0.00,OVC,OVC,0.00,WeatherDisplay:10.37,2013-02-05 16:08:00,
2013-02-05 10:13:00,37.4,26.7,29.91,WNW,296,4.0,4.0,65,0.00,OVC,OVC,0.00,WeatherDisplay:10.37,2013-02-05 16:13:00,
2013-02-05 10:19:00,37.9,27.2,29.91,WNW,284,8.1,8.1,65,0.00,OVC,OVC,0.00,WeatherDisplay:10.37,2013-02-05 16:19:00,
2013-02-05 10:24:00,38.3,27.2,29.91,WNW,292,8.1,8.1,64,0.00,OVC,OVC,0.00,WeatherDisplay:10.37,2013-02-05 16:24:00,
2013-02-05 10:29:00,38.6,27.5,29.91,WNW,290,6.9,6.9,64,0.00,OVC,OVC,0.00,WeatherDisplay:10.37,2013-02-05 16:29:00,
2013-02-05 10:34:00,39.2,28.0,29.91,WNW,290,10.4,10.4,64,0.00,OVC,OVC,0.00,WeatherDisplay:10.37,2013-02-05 16:34:00,
2013-02-05 10:39:00,39.5,27.9,29.92,West,260,7.0,7.0,63,0.00,OVC,OVC,0.00,WeatherDisplay:10.37,2013-02-05 16:39:00,
2013-02-05 10:44:00,39.9,27.9,29.92,West,271,9.0,9.0,62,0.00,OVC,OVC,0.00,WeatherDisplay:10.37,2013-02-05 16:44:00,
2013-02-05 10:50:00,40.0,28.0,29.92,WNW,294,11.5,11.5,62,0.00,OVC,OVC,0.00,WeatherDisplay:10.37,2013-02-05 16:50:00,
2013-02-05 10:55:00,40.2,28.6,29.92,NW,313,7.0,7.0,63,0.00,OVC,OVC,0.00,WeatherDisplay:10.37,2013-02-05 16:55:00,
2013-02-05 11:00:00,40.1,28.1,29.93,WNW,288,13.8,13.8,62,0.00,OVC,OVC,0.00,WeatherDisplay:10.37,2013-02-05 17:00:00,
2013-02-05 11:05:00,40.1,28.5,29.93,WNW,288,11.5,11.5,63,0.00,OVC,OVC,0.00,WeatherDisplay:10.37,2013-02-05 17:05:00,
2013-02-05 11:11:00,40.2,28.6,29.94,WNW,292,12.7,12.7,63,0.00,OVC,OVC,0.00,WeatherDisplay:10.37,2013-02-05 17:11:00,
2013-02-05 11:16:00,40.6,29.0,29.94,WNW,288,12.7,12.7,63,0.00,OVC,OVC,0.00,WeatherDisplay:10.37,2013-02-05 17:16:00,
2013-02-05 11:21:00,40.7,28.7,29.94,NW,305,15.0,15.0,62,0.00,OVC,OVC,0.00,WeatherDisplay:10.37,2013-02-05 17:21:00,
2013-02-05 11:27:00,40.9,28.9,29.95,NW,317,11.5,11.5,62,0.00,OVC,OVC,0.00,WeatherDisplay:10.37,2013-02-05 17:27:00,
2013-02-05 11:32:00,40.8,29.2,29.95,WNW,292,11.5,11.5,63,0.00,OVC,OVC,0.00,WeatherDisplay:10.37,2013-02-05 17:32:00,
2013-02-05 11:37:00,40.8,28.4,29.95,NW,312,16.1,16.1,61,0.00,OVC,OVC,0.00,WeatherDisplay:10.37,2013-02-05 17:37:00,
2013-02-05 11:42:00,40.7,28.7,29.96,WNW,296,11.5,11.5,62,0.00,OVC,OVC,0.00,WeatherDisplay:10.37,2013-02-05 17:42:00,
2013-02-05 11:48:00,40.9,28.9,29.96,NNW,334,6.9,6.9,62,0.00,OVC,OVC,0.00,WeatherDisplay:10.37,2013-02-05 17:48:00,
2013-02-05 11:53:00,40.7,28.7,29.96,NW,318,13.8,13.8,62,0.00,OVC,OVC,0.00,WeatherDisplay:10.37,2013-02-05 17:53:00,
2013-02-05 11:58:00,40.9,29.3,29.96,NW,304,9.2,9.2,63,0.00,OVC,OVC,0.00,WeatherDisplay:10.37,2013-02-05 17:58:00,
2013-02-05 12:04:00,41.3,29.6,29.96,WNW,300,6.9,6.9,63,0.00,OVC,OVC,0.00,WeatherDisplay:10.37,2013-02-05 18:04:00,
2013-02-05 12:09:00,41.4,29.7,29.96,NW,322,11.5,11.5,63,0.00,OVC,OVC,0.00,WeatherDisplay:10.37,2013-02-05 18:09:00,
2013-02-05 12:14:00,41.7,30.0,29.95,NW,325,11.5,11.5,63,0.00,OVC,OVC,0.00,WeatherDisplay:10.37,2013-02-05 18:14:00,
2013-02-05 12:19:00,41.7,29.6,29.96,NW,309,11.5,11.5,62,0.00,OVC,OVC,0.00,WeatherDisplay:10.37,2013-02-05 18:19:00,
2013-02-05 12:25:00,41.9,29.8,29.96,North,355,4.6,4.6,62,0.00,OVC,OVC,0.00,WeatherDisplay:10.37,2013-02-05 18:25:00,
2013-02-05 12:30:00,42.0,29.9,29.96,NW,317,10.4,10.4,62,0.00,OVC,OVC,0.00,WeatherDisplay:10.37,2013-02-05 18:30:00,
2013-02-05 12:35:00,42.2,30.1,29.96,NNW,327,10.4,10.4,62,0.00,OVC,OVC,0.00,WeatherDisplay:10.37,2013-02-05 18:35:00,
2013-02-05 12:40:00,42.4,30.3,29.96,NW,307,6.9,6.9,62,0.00,OVC,OVC,0.00,WeatherDisplay:10.37,2013-02-05 18:40:00,
2013-02-05 12:46:00,42.5,30.4,29.96,North,355,6.9,6.9,62,0.00,OVC,OVC,0.00,WeatherDisplay:10.37,2013-02-05 18:46:00,
2013-02-05 12:51:00,42.5,30.4,29.96,NNW,336,5.8,5.8,62,0.00,OVC,OVC,0.00,WeatherDisplay:10.37,2013-02-05 18:51:00,
2013-02-05 12:56:00,42.5,30.4,29.97,WNW,295,4.6,4.6,62,0.00,OVC,OVC,0.00,WeatherDisplay:10.37,2013-02-05 18:56:00,
2013-02-05 13:01:00,42.7,30.6,29.97,NW,319,5.8,5.8,62,0.00,OVC,OVC,0.00,WeatherDisplay:10.37,2013-02-05 19:01:00,
2013-02-05 13:06:00,42.7,30.6,29.97,NW,309,13.8,13.8,62,0.00,OVC,OVC,0.00,WeatherDisplay:10.37,2013-02-05 19:06:00,
2013-02-05 13:12:00,42.8,30.7,29.97,NW,307,11.5,11.5,62,0.00,OVC,OVC,0.00,WeatherDisplay:10.37,2013-02-05 19:12:00,
2013-02-05 13:17:00,43.0,30.9,29.97,NNW,332,10.4,10.4,62,0.00,OVC,OVC,0.00,WeatherDisplay:10.37,2013-02-05 19:17:00,
2013-02-05 13:22:00,42.9,30.8,29.98,North,5,9.2,9.2,62,0.00,OVC,OVC,0.00,WeatherDisplay:10.37,2013-02-05 19:22:00,
2013-02-05 13:28:00,42.7,30.6,29.98,NW,325,4.6,4.6,62,0.00,OVC,OVC,0.00,WeatherDisplay:10.37,2013-02-05 19:28:00,
2013-02-05 13:33:00,42.9,30.8,29.98,NNE,23,10.4,10.4,62,0.00,OVC,OVC,0.00,WeatherDisplay:10.37,2013-02-05 19:33:00,
2013-02-05 13:38:00,43.3,31.1,29.98,NNW,333,11.5,11.5,62,0.00,OVC,OVC,0.00,WeatherDisplay:10.37,2013-02-05 19:38:00,
2013-02-05 13:43:00,43.5,30.5,29.98,WNW,293,10.0,10.0,60,0.00,OVC,OVC,0.00,WeatherDisplay:10.37,2013-02-05 19:43:00,
2013-02-05 13:49:00,43.1,30.6,29.98,WNW,302,5.8,5.8,61,0.00,OVC,OVC,0.00,WeatherDisplay:10.37,2013-02-05 19:49:00,
2013-02-05 13:54:00,43.2,31.1,29.98,WSW,243,4.6,4.6,62,0.00,OVC,OVC,0.00,WeatherDisplay:10.37,2013-02-05 19:54:00,
2013-02-05 13:59:00,43.4,30.8,29.98,NW,305,10.4,10.4,61,0.00,OVC,OVC,0.00,WeatherDisplay:10.37,2013-02-05 19:59:00,
2013-02-05 14:04:00,43.8,31.2,29.98,WNW,285,6.9,6.9,61,0.00,OVC,OVC,0.00,WeatherDisplay:10.37,2013-02-05 20:04:00,
2013-02-05 14:09:00,44.6,31.6,29.98,WNW,301,6.9,6.9,60,0.00,OVC,OVC,0.00,WeatherDisplay:10.37,2013-02-05 20:09:00,
2013-02-05 14:14:00,45.0,31.5,29.98,NNW,332,5.8,5.8,59,0.00,OVC,OVC,0.00,WeatherDisplay:10.37,2013-02-05 20:14:00,
2013-02-05 14:20:00,45.1,30.8,29.98,WNW,303,6.9,6.9,57,0.00,OVC,OVC,0.00,WeatherDisplay:10.37,2013-02-05 20:20:00,
2013-02-05 14:25:00,44.8,30.0,29.98,WNW,282,11.5,11.5,56,0.00,OVC,OVC,0.00,WeatherDisplay:10.37,2013-02-05 20:25:00,
2013-02-05 14:30:00,44.8,30.0,29.98,WNW,297,9.2,9.2,56,0.00,OVC,OVC,0.00,WeatherDisplay:10.37,2013-02-05 20:30:00,
2013-02-05 14:35:00,44.4,30.1,29.99,West,271,5.0,5.0,57,0.00,OVC,OVC,0.00,WeatherDisplay:10.37,2013-02-05 20:35:00,
2013-02-05 14:41:00,44.0,30.2,29.99,NNW,329,10.4,10.4,58,0.00,OVC,OVC,0.00,WeatherDisplay:10.37,2013-02-05 20:41:00,
2013-02-05 14:46:00,43.2,30.2,30.00,West,281,6.9,6.9,60,0.00,OVC,OVC,0.00,WeatherDisplay:10.37,2013-02-05 20:46:00,
2013-02-05 14:51:00,42.7,30.2,30.00,NW,311,10.4,10.4,61,0.00,OVC,OVC,0.00,WeatherDisplay:10.37,2013-02-05 20:51:00,
2013-02-05 14:56:00,42.8,30.3,30.00,NNW,335,11.5,11.5,61,0.00,CLR,CLR,0.00,WeatherDisplay:10.37,2013-02-05 20:56:00,
2013-02-05 15:02:00,43.2,30.6,30.00,NW,323,11.5,11.5,61,0.00,CLR,CLR,0.00,WeatherDisplay:10.37,2013-02-05 21:02:00,
2013-02-05 15:07:00,43.5,30.5,30.00,NNW,329,3.5,3.5,60,0.00,CLR,CLR,0.00,WeatherDisplay:10.37,2013-02-05 21:07:00,
2013-02-05 15:12:00,43.3,29.9,30.01,WNW,291,5.0,5.0,59,0.00,CLR,CLR,0.00,WeatherDisplay:10.37,2013-02-05 21:12:00,
2013-02-05 15:17:00,42.9,30.0,30.01,NW,323,6.9,6.9,60,0.00,CLR,CLR,0.00,WeatherDisplay:10.37,2013-02-05 21:17:00,
2013-02-05 15:23:00,42.6,29.7,30.02,North,350,6.9,6.9,60,0.00,CLR,CLR,0.00,WeatherDisplay:10.37,2013-02-05 21:23:00,
2013-02-05 15:28:00,42.3,29.8,30.02,NNW,344,9.2,9.2,61,0.00,CLR,CLR,0.00,WeatherDisplay:10.37,2013-02-05 21:28:00,
2013-02-05 15:33:00,42.4,29.9,30.02,NW,319,9.2,9.2,61,0.00,CLR,CLR,0.00,WeatherDisplay:10.37,2013-02-05 21:33:00,
2013-02-05 15:39:00,42.2,29.3,30.02,NNW,336,10.4,10.4,60,0.00,CLR,CLR,0.00,WeatherDisplay:10.37,2013-02-05 21:39:00,
2013-02-05 15:44:00,41.8,29.3,30.02,NW,308,10.4,10.4,61,0.00,CLR,CLR,0.00,WeatherDisplay:10.37,2013-02-05 21:44:00,
2013-02-05 15:49:00,41.8,29.3,30.03,NNW,342,4.6,4.6,61,0.00,CLR,CLR,0.00,WeatherDisplay:10.37,2013-02-05 21:49:00,
2013-02-05 15:54:00,41.5,29.0,30.03,WNW,286,5.8,5.8,61,0.00,CLR,CLR,0.00,WeatherDisplay:10.37,2013-02-05 21:54:00,
2013-02-05 16:00:00,41.5,29.0,30.04,North,350,3.5,3.5,61,0.00,CLR,CLR,0.00,WeatherDisplay:10.37,2013-02-05 22:00:00,
2013-02-05 16:05:00,41.5,28.6,30.04,WNW,302,7.0,7.0,60,0.00,CLR,CLR,0.00,WeatherDisplay:10.37,2013-02-05 22:05:00,
2013-02-05 16:10:00,41.5,29.0,30.04,North,355,3.5,3.5,61,0.00,CLR,CLR,0.00,WeatherDisplay:10.37,2013-02-05 22:10:00,
2013-02-05 16:15:00,41.3,28.4,30.04,WNW,300,4.6,4.6,60,0.00,CLR,CLR,0.00,WeatherDisplay:10.37,2013-02-05 22:15:00,
2013-02-05 16:21:00,41.1,28.7,30.04,NNE,30,11.5,11.5,61,0.00,CLR,CLR,0.00,WeatherDisplay:10.37,2013-02-05 22:21:00,
2013-02-05 16:26:00,40.9,28.5,30.04,NNW,340,4.6,4.6,61,0.00,CLR,CLR,0.00,WeatherDisplay:10.37,2013-02-05 22:26:00,
2013-02-05 16:31:00,40.8,28.4,30.04,NNW,334,3.5,3.5,61,0.00,CLR,CLR,0.00,WeatherDisplay:10.37,2013-02-05 22:31:00,
2013-02-05 16:37:00,40.6,28.2,30.05,NW,315,3.5,3.5,61,0.00,CLR,CLR,0.00,WeatherDisplay:10.37,2013-02-05 22:37:00,
2013-02-05 16:42:00,40.3,27.9,30.05,NNW,346,4.6,4.6,61,0.00,CLR,CLR,0.00,WeatherDisplay:10.37,2013-02-05 22:42:00,
2013-02-05 16:47:00,40.1,28.1,30.05,NW,322,3.5,3.5,62,0.00,CLR,CLR,0.00,WeatherDisplay:10.37,2013-02-05 22:47:00,
2013-02-05 16:53:00,39.8,27.8,30.05,West,281,3.5,3.5,62,0.00,CLR,CLR,0.00,WeatherDisplay:10.37,2013-02-05 22:53:00,
2013-02-05 16:58:00,39.6,28.0,30.05,WNW,291,0.0,0.2,63,0.00,CLR,CLR,0.00,WeatherDisplay:10.37,2013-02-05 22:58:00,
2013-02-05 17:03:00,39.3,27.7,30.05,WNW,302,3.5,3.5,63,0.00,CLR,CLR,0.00,WeatherDisplay:10.37,2013-02-05 23:03:00,
2013-02-05 17:08:00,39.1,27.9,30.05,WNW,302,1.2,1.2,64,0.00,CLR,CLR,0.00,WeatherDisplay:10.37,2013-02-05 23:08:00,
2013-02-05 17:13:00,39.0,27.8,30.06,NW,323,2.3,2.3,64,0.00,CLR,CLR,0.00,WeatherDisplay:10.37,2013-02-05 23:13:00,
2013-02-05 17:18:00,38.8,28.0,30.06,NW,323,0.0,0.0,65,0.00,CLR,CLR,0.00,WeatherDisplay:10.37,2013-02-05 23:18:00,
2013-02-05 17:23:00,38.7,27.9,30.06,NW,323,0.0,0.0,65,0.00,CLR,CLR,0.00,WeatherDisplay:10.37,2013-02-05 23:23:00,
2013-02-05 17:29:00,38.5,27.7,30.06,NW,323,0.0,0.0,65,0.00,CLR,CLR,0.00,WeatherDisplay:10.37,2013-02-05 23:29:00,
2013-02-05 17:34:00,38.2,27.8,30.06,NW,323,0.0,0.0,66,0.00,CLR,CLR,0.00,WeatherDisplay:10.37,2013-02-05 23:34:00,
2013-02-05 17:39:00,37.9,27.5,30.06,NW,323,0.0,0.0,66,0.00,CLR,CLR,0.00,WeatherDisplay:10.37,2013-02-05 23:39:00,
2013-02-05 17:44:00,37.6,27.6,30.06,NW,323,0.0,0.0,67,0.00,CLR,CLR,0.00,WeatherDisplay:10.37,2013-02-05 23:44:00,
2013-02-05 17:50:00,37.3,27.7,30.07,NW,323,0.0,0.0,68,0.00,CLR,CLR,0.00,WeatherDisplay:10.37,2013-02-05 23:50:00,
2013-02-05 17:55:00,37.1,27.5,30.07,NW,323,0.0,0.0,68,0.00,CLR,CLR,0.00,WeatherDisplay:10.37,2013-02-05 23:55:00,
2013-02-05 18:00:00,36.7,27.1,30.07,NW,323,0.0,0.0,68,0.00,CLR,CLR,0.00,WeatherDisplay:10.37,2013-02-06 00:00:00,
2013-02-05 18:05:00,36.2,26.6,30.07,NW,323,0.0,0.0,68,0.00,CLR,CLR,0.00,WeatherDisplay:10.37,2013-02-06 00:05:00,
2013-02-05 18:11:00,35.7,26.5,30.07,NW,323,0.0,0.0,69,0.00,CLR,CLR,0.00,WeatherDisplay:10.37,2013-02-06 00:11:00,
2013-02-05 18:16:00,35.3,26.5,30.07,NW,323,0.0,0.0,70,0.00,CLR,CLR,0.00,WeatherDisplay:10.37,2013-02-06 00:16:00,
2013-02-05 18:21:00,35.0,26.5,30.08,NW,323,0.0,0.0,71,0.00,CLR,CLR,0.00,WeatherDisplay:10.37,2013-02-06 00:21:00,
2013-02-05 18:26:00,34.6,26.5,30.08,NW,323,0.0,0.0,72,0.00,CLR,CLR,0.00,WeatherDisplay:10.37,2013-02-06 00:26:00,
2013-02-05 18:31:00,34.4,26.6,30.08,NW,323,0.0,0.0,73,0.00,CLR,CLR,0.00,WeatherDisplay:10.37,2013-02-06 00:31:00,
2013-02-05 18:36:00,34.4,26.6,30.08,NW,323,0.0,0.0,73,0.00,CLR,CLR,0.00,WeatherDisplay:10.37,2013-02-06 00:36:00,
2013-02-05 18:42:00,34.2,26.4,30.08,NW,323,0.0,0.0,73,0.00,CLR,CLR,0.00,WeatherDisplay:10.37,2013-02-06 00:42:00,
2013-02-05 18:47:00,33.8,26.1,30.08,NW,323,0.0,0.0,73,0.00,CLR,CLR,0.00,WeatherDisplay:10.37,2013-02-06 00:47:00,
2013-02-05 18:52:00,33.5,26.1,30.08,NW,323,0.0,0.0,74,0.00,CLR,CLR,0.00,WeatherDisplay:10.37,2013-02-06 00:52:00,
2013-02-05 18:57:00,33.2,25.8,30.08,NW,323,0.0,0.0,74,0.00,CLR,CLR,0.00,WeatherDisplay:10.37,2013-02-06 00:57:00,
2013-02-05 19:03:00,32.9,25.8,30.09,NW,323,0.0,0.0,75,0.00,CLR,CLR,0.00,WeatherDisplay:10.37,2013-02-06 01:03:00,
2013-02-05 19:08:00,32.8,25.7,30.09,NW,323,0.0,0.0,75,0.00,CLR,CLR,0.00,WeatherDisplay:10.37,2013-02-06 01:08:00,
2013-02-05 19:13:00,33.1,26.4,30.09,NW,323,0.0,0.0,76,0.00,CLR,CLR,0.00,WeatherDisplay:10.37,2013-02-06 01:13:00,
2013-02-05 19:18:00,33.2,26.5,30.10,NW,323,0.0,0.0,76,0.00,CLR,CLR,0.00,WeatherDisplay:10.37,2013-02-06 01:18:00,
2013-02-05 19:38:00,32.6,25.9,30.11,NW,323,0.0,0.0,76,0.00,CLR,CLR,0.00,WeatherDisplay:10.37,2013-02-06 01:38:00,
2013-02-05 19:44:00,32.6,26.2,30.11,NW,323,0.0,0.0,77,0.00,CLR,CLR,0.00,WeatherDisplay:10.37,2013-02-06 01:44:00,
2013-02-05 19:49:00,33.0,26.6,30.11,NW,323,0.0,0.0,77,0.00,CLR,CLR,0.00,WeatherDisplay:10.37,2013-02-06 01:49:00,
2013-02-05 19:54:00,33.1,26.4,30.11,NW,323,0.0,0.0,76,0.00,CLR,CLR,0.00,WeatherDisplay:10.37,2013-02-06 01:54:00,
2013-02-05 20:00:00,33.2,26.5,30.11,NW,323,2.0,2.0,76,0.00,CLR,CLR,0.00,WeatherDisplay:10.37,2013-02-06 02:00:00,
2013-02-05 20:05:00,33.5,26.7,30.10,NW,323,3.5,3.5,76,0.00,CLR,CLR,0.00,WeatherDisplay:10.37,2013-02-06 02:05:00,
2013-02-05 20:10:00,33.8,26.7,30.11,NW,322,3.5,3.5,75,0.00,CLR,CLR,0.00,WeatherDisplay:10.37,2013-02-06 02:10:00,
2013-02-05 20:15:00,34.0,26.6,30.11,NW,322,2.3,2.3,74,0.00,CLR,CLR,0.00,WeatherDisplay:10.37,2013-02-06 02:15:00,
2013-02-05 20:20:00,34.0,26.3,30.12,NW,322,1.2,1.2,73,0.00,CLR,CLR,0.00,WeatherDisplay:10.37,2013-02-06 02:20:00,
2013-02-05 20:26:00,33.9,26.2,30.12,NW,322,2.3,2.3,73,0.00,CLR,CLR,0.00,WeatherDisplay:10.37,2013-02-06 02:26:00,
2013-02-05 20:31:00,34.1,26.0,30.12,NW,318,2.3,2.3,72,0.00,CLR,CLR,0.00,WeatherDisplay:10.37,2013-02-06 02:31:00,
2013-02-05 20:36:00,34.0,25.9,30.12,NW,309,2.3,2.3,72,0.00,CLR,CLR,0.00,WeatherDisplay:10.37,2013-02-06 02:36:00,
2013-02-05 20:41:00,34.0,25.9,30.12,NW,317,0.0,0.0,72,0.00,CLR,CLR,0.00,WeatherDisplay:10.37,2013-02-06 02:41:00,
2013-02-05 20:46:00,33.7,25.6,30.13,NW,317,0.0,0.0,72,0.00,CLR,CLR,0.00,WeatherDisplay:10.37,2013-02-06 02:46:00,
2013-02-05 20:52:00,33.4,25.3,30.13,NW,317,0.0,0.0,72,0.00,CLR,CLR,0.00,WeatherDisplay:10.37,2013-02-06 02:52:00,
2013-02-05 20:57:00,33.1,25.1,30.12,NW,320,1.2,0.0,72,0.00,CLR,CLR,0.00,WeatherDisplay:10.37,2013-02-06 02:57:00,
2013-02-05 21:02:00,32.7,25.0,30.12,NW,320,0.0,0.0,73,0.00,CLR,CLR,0.00,WeatherDisplay:10.37,2013-02-06 03:02:00,
2013-02-05 21:07:00,32.4,24.7,30.13,NW,320,0.0,0.0,73,0.00,CLR,CLR,0.00,WeatherDisplay:10.37,2013-02-06 03:07:00,
2013-02-05 21:13:00,32.1,24.4,30.13,NW,320,0.0,0.0,73,0.00,CLR,CLR,0.00,WeatherDisplay:10.37,2013-02-06 03:13:00,
2013-02-05 21:18:00,31.8,24.1,30.13,NW,320,0.0,0.0,73,0.00,CLR,CLR,0.00,WeatherDisplay:10.37,2013-02-06 03:18:00,
2013-02-05 21:23:00,31.4,24.1,30.14,NW,320,0.0,0.0,74,0.00,CLR,CLR,0.00,WeatherDisplay:10.37,2013-02-06 03:23:00,
2013-02-05 21:28:00,31.2,24.2,30.14,NW,320,0.0,0.0,75,0.00,CLR,CLR,0.00,WeatherDisplay:10.37,2013-02-06 03:28:00,
2013-02-05 21:33:00,31.0,24.0,30.14,NW,320,0.0,0.0,75,0.00,CLR,CLR,0.00,WeatherDisplay:10.37,2013-02-06 03:33:00,
2013-02-05 21:39:00,30.8,24.1,30.14,NW,320,0.0,0.0,76,0.00,CLR,CLR,0.00,WeatherDisplay:10.37,2013-02-06 03:39:00,
2013-02-05 21:44:00,30.6,23.9,30.14,NW,320,0.0,0.0,76,0.00,CLR,CLR,0.00,WeatherDisplay:10.37,2013-02-06 03:44:00,
2013-02-05 21:49:00,30.3,23.6,30.15,NW,320,0.0,0.0,76,0.00,CLR,CLR,0.00,WeatherDisplay:10.37,2013-02-06 03:49:00,
2013-02-05 21:54:00,30.0,23.4,30.15,NW,320,0.0,0.0,76,0.00,CLR,CLR,0.00,WeatherDisplay:10.37,2013-02-06 03:54:00,
2013-02-05 22:00:00,29.7,23.1,30.14,NW,320,0.0,0.0,76,0.00,CLR,CLR,0.00,WeatherDisplay:10.37,2013-02-06 04:00:00,
2013-02-05 22:05:00,29.3,23.0,30.15,NW,320,0.0,0.0,77,0.00,CLR,CLR,0.00,WeatherDisplay:10.37,2013-02-06 04:05:00,
2013-02-05 22:10:00,29.2,22.9,30.15,NW,320,0.0,0.0,77,0.00,CLR,CLR,0.00,WeatherDisplay:10.37,2013-02-06 04:10:00,
2013-02-05 22:15:00,29.3,23.3,30.15,NW,320,0.0,0.0,78,0.00,CLR,CLR,0.00,WeatherDisplay:10.37,2013-02-06 04:15:00,
2013-02-05 22:20:00,29.4,23.4,30.15,NW,320,0.0,0.0,78,0.00,CLR,CLR,0.00,WeatherDisplay:10.37,2013-02-06 04:20:00,
2013-02-05 22:26:00,29.4,23.7,30.15,NW,320,0.0,0.0,79,0.00,CLR,CLR,0.00,WeatherDisplay:10.37,2013-02-06 04:26:00,
2013-02-05 22:31:00,29.2,23.5,30.15,NW,320,0.0,0.0,79,0.00,CLR,CLR,0.00,WeatherDisplay:10.37,2013-02-06 04:31:00,
2013-02-05 22:36:00,28.9,23.2,30.15,NW,320,0.0,0.0,79,0.00,CLR,CLR,0.00,WeatherDisplay:10.37,2013-02-06 04:36:00,
2013-02-05 22:41:00,28.8,23.1,30.15,NW,320,0.0,0.0,79,0.00,CLR,CLR,0.00,WeatherDisplay:10.37,2013-02-06 04:41:00,
2013-02-05 22:47:00,28.7,23.0,30.15,NW,320,0.0,0.0,79,0.00,CLR,CLR,0.00,WeatherDisplay:10.37,2013-02-06 04:47:00,
2013-02-05 22:52:00,28.5,22.8,30.15,NW,320,0.0,0.0,79,0.00,CLR,CLR,0.00,WeatherDisplay:10.37,2013-02-06 04:52:00,
2013-02-05 22:57:00,28.3,22.6,30.15,NW,320,0.0,0.0,79,0.00,OVC,OVC,0.00,WeatherDisplay:10.37,2013-02-06 04:57:00,
2013-02-05 23:00:00,28.1,22.4,30.15,NW,320,0.0,0.0,79,0.00,OVC,OVC,0.00,WeatherDisplay:10.37,2013-02-06 05:00:00,
2013-02-05 23:01:00,27.9,22.2,30.15,NW,320,0.0,0.0,79,0.00,OVC,OVC,0.00,WeatherDisplay:10.37,2013-02-06 05:01:00,
2013-02-05 23:07:00,27.6,21.9,30.15,NW,320,0.0,0.0,79,0.00,OVC,OVC,0.00,WeatherDisplay:10.37,2013-02-06 05:07:00,
2013-02-05 23:12:00,27.2,21.5,30.15,NW,320,0.0,0.0,79,0.00,OVC,OVC,0.00,WeatherDisplay:10.37,2013-02-06 05:12:00,
2013-02-05 23:17:00,26.8,21.2,30.15,NW,320,0.0,0.0,79,0.00,OVC,OVC,0.00,WeatherDisplay:10.37,2013-02-06 05:17:00,
2013-02-05 23:23:00,26.5,20.9,30.15,NW,320,0.0,0.0,79,0.00,OVC,OVC,0.00,WeatherDisplay:10.37,2013-02-06 05:23:00,
2013-02-05 23:28:00,26.3,20.7,30.16,NW,320,0.0,0.0,79,0.00,OVC,OVC,0.00,WeatherDisplay:10.37,2013-02-06 05:28:00,
2013-02-05 23:33:00,26.5,21.2,30.15,NW,320,0.0,0.0,80,0.00,OVC,OVC,0.00,WeatherDisplay:10.37,2013-02-06 05:33:00,
2013-02-05 23:38:00,26.7,21.4,30.16,NW,320,0.0,0.0,80,0.00,OVC,OVC,0.00,WeatherDisplay:10.37,2013-02-06 05:38:00,
2013-02-05 23:44:00,26.9,21.6,30.16,NW,320,0.0,0.0,80,0.00,OVC,OVC,0.00,WeatherDisplay:10.37,2013-02-06 05:44:00,
2013-02-05 23:49:00,26.9,21.6,30.16,NW,320,0.0,0.0,80,0.00,OVC,OVC,0.00,WeatherDisplay:10.37,2013-02-06 05:49:00,
2013-02-05 23:54:00,26.7,21.4,30.16,NW,320,0.0,0.0,80,0.00,OVC,OVC,0.00,WeatherDisplay:10.37,2013-02-06 05:54:00,
2013-02-05 23:59:00,27.0,21.9,30.16,NW,320,0.0,0.0,81,0.00,OVC,OVC,0.00,WeatherDisplay:10.37,2013-02-06 05:59:00,